Time;durP1;ratioP1;P1;durP2;ratioP2;P2;SDS_P1;SDS_P2;PMS_P1;PMS_P2;Temp;Humidity;BMP_temperature;BMP_pressure;BME280_temperature;BME280_humidity;BME280_pressure;Samples;Min_cycle;Max_cycle;Signal;HPM_P1;HPM_P2
2023/12/24 00:00:38;;;;;;;2.03;1.70;;;1.90;99.90;;;;;;4904676;29;20574;-63
2023/12/24 00:03:04;;;;;;;5.53;4.03;;;1.90;99.90;;;;;;4896388;29;20270;-62
2023/12/24 00:05:30;;;;;;;2.33;1.80;;;1.90;99.90;;;;;;4910912;29;20171;-63
2023/12/24 00:07:55;;;;;;;3.27;1.83;;;1.90;99.90;;;;;;4903476;29;20479;-63
2023/12/24 00:10:21;;;;;;;2.50;1.53;;;1.80;99.90;;;;;;4910855;29;20199;-62
2023/12/24 00:12:47;;;;;;;2.20;2.00;;;1.80;99.90;;;;;;4905876;29;20443;-63
2023/12/24 00:15:14;;;;;;;3.47;2.33;;;1.80;99.90;;;;;;4909183;29;20558;-63
2023/12/24 00:17:40;;;;;;;2.50;2.30;;;1.80;99.90;;;;;;4913573;29;20259;-64
2023/12/24 00:20:06;;;;;;;1.97;1.83;;;1.70;99.90;;;;;;4907087;29;20420;-63
2023/12/24 00:22:31;;;;;;;2.70;2.50;;;1.70;99.90;;;;;;4906062;29;20207;-63
2023/12/24 00:24:57;;;;;;;2.70;2.50;;;1.70;99.90;;;;;;4911670;29;20436;-63
2023/12/24 00:27:23;;;;;;;2.73;2.30;;;1.60;99.90;;;;;;4900406;29;20183;-64
2023/12/24 00:29:48;;;;;;;2.80;1.90;;;1.60;99.90;;;;;;4913319;29;20262;-63
2023/12/24 00:32:15;;;;;;;3.00;2.77;;;1.60;99.90;;;;;;4901729;29;20580;-63
2023/12/24 00:34:41;;;;;;;3.80;2.73;;;1.60;99.90;;;;;;4905498;29;20176;-63
2023/12/24 00:37:07;;;;;;;3.53;3.00;;;1.70;99.90;;;;;;4903223;29;20436;-64
2023/12/24 00:39:32;;;;;;;3.33;3.03;;;1.70;99.90;;;;;;4912620;29;20183;-65
2023/12/24 00:41:58;;;;;;;3.47;3.10;;;1.60;99.90;;;;;;4901645;29;20455;-62
2023/12/24 00:44:23;;;;;;;3.03;2.77;;;1.60;99.90;;;;;;4896873;29;20691;-62
2023/12/24 00:46:49;;;;;;;3.90;3.60;;;1.70;99.90;;;;;;4910080;29;20232;-63
2023/12/24 00:49:14;;;;;;;6.00;3.27;;;1.70;99.90;;;;;;4911110;29;20686;-63
2023/12/24 00:51:42;;;;;;;3.93;3.47;;;1.60;99.90;;;;;;4902631;29;20198;-63
2023/12/24 00:54:08;;;;;;;3.57;3.27;;;1.60;99.90;;;;;;4902414;29;20243;-62
2023/12/24 00:56:34;;;;;;;4.07;3.20;;;1.60;99.90;;;;;;4900533;29;20503;-63
2023/12/24 00:58:59;;;;;;;4.60;3.53;;;1.60;99.90;;;;;;4913282;29;20475;-62
2023/12/24 01:01:25;;;;;;;7.23;3.53;;;1.60;99.90;;;;;;4912188;29;20203;-63
2023/12/24 01:03:50;;;;;;;3.93;3.07;;;1.70;99.90;;;;;;4904239;29;20191;-62
2023/12/24 01:06:16;;;;;;;5.40;4.10;;;1.70;99.90;;;;;;4899640;29;20172;-62
2023/12/24 01:08:42;;;;;;;4.97;4.47;;;1.70;99.90;;;;;;4902614;29;20307;-62
2023/12/24 01:11:07;;;;;;;4.83;4.23;;;1.70;99.90;;;;;;4905786;29;20563;-63
2023/12/24 01:13:33;;;;;;;5.53;4.33;;;1.70;99.90;;;;;;4913223;29;20721;-63
2023/12/24 01:16:01;;;;;;;6.73;4.90;;;1.70;99.90;;;;;;4914052;29;20208;-62
2023/12/24 01:18:27;;;;;;;6.63;5.00;;;1.70;99.90;;;;;;4911401;29;20259;-62
2023/12/24 01:20:52;;;;;;;7.20;6.17;;;1.60;99.90;;;;;;4912187;29;20542;-62
2023/12/24 01:23:18;;;;;;;7.63;4.97;;;1.60;99.90;;;;;;4906570;29;20501;-62
2023/12/24 01:25:44;;;;;;;8.63;5.43;;;1.70;99.90;;;;;;4900671;29;20177;-61
2023/12/24 01:28:10;;;;;;;7.07;5.47;;;1.70;99.90;;;;;;4904609;29;20479;-60
2023/12/24 01:30:35;;;;;;;9.93;6.70;;;1.70;99.90;;;;;;4909187;29;20981;-62
2023/12/24 01:33:01;;;;;;;7.73;5.90;;;1.70;99.90;;;;;;4908349;29;20196;-62
2023/12/24 01:35:27;;;;;;;7.27;5.93;;;1.70;99.90;;;;;;4915478;29;20827;-62
2023/12/24 01:37:52;;;;;;;7.57;6.00;;;1.70;99.90;;;;;;4914191;29;20235;-62
2023/12/24 01:40:18;;;;;;;9.60;6.60;;;1.70;99.90;;;;;;4906635;29;20188;-63
2023/12/24 01:42:45;;;;;;;6.97;5.20;;;1.70;99.90;;;;;;4910804;29;20230;-64
2023/12/24 01:45:11;;;;;;;6.33;4.63;;;1.70;99.90;;;;;;4905837;29;20199;-64
2023/12/24 01:47:37;;;;;;;7.87;5.70;;;1.70;99.90;;;;;;4904761;29;20911;-62
2023/12/24 01:50:04;;;;;;;7.67;5.30;;;1.70;99.90;;;;;;4908029;29;20574;-63
2023/12/24 01:52:29;;;;;;;8.53;5.87;;;1.70;99.90;;;;;;4910776;29;20375;-62
2023/12/24 01:54:56;;;;;;;5.90;4.50;;;1.60;99.90;;;;;;4914760;29;20926;-62
2023/12/24 01:57:22;;;;;;;5.97;4.43;;;1.60;99.90;;;;;;4911416;29;20216;-63
2023/12/24 01:59:49;;;;;;;5.00;4.20;;;1.70;99.90;;;;;;4913344;29;20424;-63
2023/12/24 02:02:16;;;;;;;7.07;4.47;;;1.60;99.90;;;;;;4907602;29;20503;-63
2023/12/24 02:04:42;;;;;;;5.80;4.47;;;1.60;99.90;;;;;;4910984;29;20443;-63
2023/12/24 02:07:11;;;;;;;4.43;3.80;;;1.50;99.90;;;;;;4908555;29;20451;-63
2023/12/24 02:09:36;;;;;;;6.23;4.83;;;1.50;99.90;;;;;;4910952;29;20551;-63
2023/12/24 02:12:02;;;;;;;6.33;4.47;;;1.60;99.90;;;;;;4905838;29;20614;-64
2023/12/24 02:14:28;;;;;;;8.90;4.50;;;1.60;99.90;;;;;;4908212;29;20643;-63
2023/12/24 02:16:58;;;;;;;4.57;3.67;;;1.60;99.90;;;;;;4911734;29;20431;-63
2023/12/24 02:19:24;;;;;;;6.20;4.17;;;1.60;99.90;;;;;;4914432;29;20419;-62
2023/12/24 02:21:50;;;;;;;6.47;4.60;;;1.60;99.90;;;;;;4911048;29;20585;-62
2023/12/24 02:24:16;;;;;;;5.30;3.63;;;1.60;99.90;;;;;;4912869;29;20461;-63
2023/12/24 02:27:13;;;;;;;7.17;4.10;;;1.50;99.90;;;;;;4915799;29;20180;-64
2023/12/24 02:29:44;;;;;;;6.90;4.83;;;1.70;99.90;;;;;;4912288;29;20467;-64
2023/12/24 02:32:17;;;;;;;5.67;4.67;;;1.60;99.90;;;;;;4915474;29;20463;-61
2023/12/24 02:34:45;;;;;;;5.37;3.97;;;1.60;99.90;;;;;;4911383;29;20419;-64
2023/12/24 02:37:12;;;;;;;6.57;4.63;;;1.60;99.90;;;;;;4912956;29;20472;-63
2023/12/24 02:39:38;;;;;;;4.97;3.83;;;1.60;99.90;;;;;;4906498;29;20433;-63
2023/12/24 02:42:05;;;;;;;5.40;4.13;;;1.60;99.90;;;;;;4914654;29;20452;-63
2023/12/24 02:44:31;;;;;;;8.10;4.57;;;1.60;99.90;;;;;;4912190;29;20895;-62
2023/12/24 02:46:56;;;;;;;5.10;3.80;;;1.70;99.90;;;;;;4908514;29;20429;-63
2023/12/24 02:49:22;;;;;;;4.73;3.33;;;1.70;99.90;;;;;;4907959;29;20566;-63
2023/12/24 02:51:47;;;;;;;3.53;3.23;;;1.70;99.90;;;;;;4904212;29;20282;-61
2023/12/24 02:54:13;;;;;;;4.10;3.50;;;1.70;99.90;;;;;;4899021;29;20331;-63
2023/12/24 02:56:39;;;;;;;3.30;2.60;;;1.80;99.90;;;;;;4906225;29;20179;-63
2023/12/24 02:59:04;;;;;;;3.73;2.90;;;1.80;99.90;;;;;;4915024;29;20214;-63
2023/12/24 03:01:30;;;;;;;3.20;2.40;;;1.70;99.90;;;;;;4909218;29;20214;-63
2023/12/24 03:03:56;;;;;;;3.70;3.17;;;1.70;99.90;;;;;;4905536;29;20187;-63
2023/12/24 03:06:22;;;;;;;4.97;3.20;;;1.70;99.90;;;;;;4905985;29;20507;-62
2023/12/24 03:08:48;;;;;;;4.30;3.30;;;1.70;99.90;;;;;;4905965;29;20555;-62
2023/12/24 03:11:13;;;;;;;4.10;2.77;;;1.60;99.90;;;;;;4900593;29;20195;-62
2023/12/24 03:13:39;;;;;;;3.47;2.50;;;1.60;99.90;;;;;;4915033;29;20175;-61
2023/12/24 03:16:05;;;;;;;3.23;2.60;;;1.60;99.90;;;;;;4915263;29;20673;-62
2023/12/24 03:18:30;;;;;;;3.90;3.17;;;1.70;99.90;;;;;;4904546;29;20207;-63
2023/12/24 03:20:57;;;;;;;6.00;4.13;;;1.70;99.90;;;;;;4912696;29;20461;-63
2023/12/24 03:23:22;;;;;;;5.90;4.17;;;1.80;99.90;;;;;;4905417;29;20494;-64
2023/12/24 03:25:48;;;;;;;5.47;4.73;;;1.80;99.90;;;;;;4914684;29;20439;-63
2023/12/24 03:28:13;;;;;;;5.60;3.93;;;1.80;99.90;;;;;;4913831;29;20239;-63
2023/12/24 03:30:39;;;;;;;7.07;4.60;;;1.80;99.90;;;;;;4911271;29;20294;-62
2023/12/24 03:33:05;;;;;;;6.37;4.30;;;1.80;99.90;;;;;;4907007;29;20714;-62
2023/12/24 03:35:31;;;;;;;7.30;4.63;;;1.80;99.90;;;;;;4909649;29;20512;-62
2023/12/24 03:37:56;;;;;;;10.17;4.97;;;1.80;99.90;;;;;;4906422;29;20199;-62
2023/12/24 03:40:22;;;;;;;3.33;3.03;;;1.90;99.90;;;;;;4904869;29;20185;-63
2023/12/24 03:42:47;;;;;;;7.30;3.13;;;1.90;99.90;;;;;;4911474;29;20204;-62
2023/12/24 03:45:13;;;;;;;3.50;3.20;;;1.90;99.90;;;;;;4911434;29;20413;-65
2023/12/24 03:47:39;;;;;;;2.87;2.43;;;1.80;99.90;;;;;;4909771;29;20198;-62
2023/12/24 03:50:05;;;;;;;3.63;2.97;;;1.90;99.90;;;;;;4914371;29;20260;-62
2023/12/24 03:52:31;;;;;;;3.70;2.47;;;1.90;99.90;;;;;;4912632;29;20222;-61
2023/12/24 03:54:56;;;;;;;2.77;2.57;;;1.90;99.90;;;;;;4906340;29;20424;-63
2023/12/24 03:57:22;;;;;;;3.03;2.73;;;1.80;99.90;;;;;;4905955;29;20516;-62
2023/12/24 03:59:48;;;;;;;3.83;2.40;;;1.80;99.90;;;;;;4904928;29;20183;-62
2023/12/24 04:02:13;;;;;;;2.40;2.20;;;1.90;99.90;;;;;;4907627;29;20290;-62
2023/12/24 04:04:49;;;;;;;2.30;1.83;;;1.80;99.90;;;;;;4907892;29;20180;-62
2023/12/24 04:07:18;;;;;;;2.57;2.23;;;1.80;99.90;;;;;;4914353;29;20655;-62
2023/12/24 04:09:44;;;;;;;2.63;2.10;;;1.80;99.90;;;;;;4913924;29;20990;-61
2023/12/24 04:12:09;;;;;;;3.03;2.03;;;1.80;99.90;;;;;;4903584;29;20635;-63
2023/12/24 04:14:39;;;;;;;3.90;2.20;;;1.80;99.90;;;;;;4906487;29;20434;-63
2023/12/24 04:17:05;;;;;;;2.97;2.17;;;1.80;99.90;;;;;;4905871;29;20606;-64
2023/12/24 04:19:30;;;;;;;2.77;2.20;;;1.80;99.90;;;;;;4913865;29;20553;-64
2023/12/24 04:21:56;;;;;;;2.90;2.43;;;1.90;99.90;;;;;;4906249;29;20440;-63
2023/12/24 04:24:22;;;;;;;2.13;1.93;;;1.70;99.90;;;;;;4906909;29;20615;-63
2023/12/24 04:26:48;;;;;;;2.10;2.00;;;1.70;99.90;;;;;;4906537;29;20614;-63
2023/12/24 04:29:13;;;;;;;2.67;2.47;;;1.70;99.90;;;;;;4905066;29;20522;-63
2023/12/24 04:31:39;;;;;;;2.73;2.07;;;1.70;99.90;;;;;;4907876;29;20294;-63
2023/12/24 04:34:08;;;;;;;2.57;2.37;;;1.70;99.90;;;;;;4913442;29;20194;-62
2023/12/24 04:36:34;;;;;;;2.90;2.40;;;1.70;99.90;;;;;;4908342;29;20941;-63
2023/12/24 04:39:00;;;;;;;3.07;2.83;;;1.80;99.90;;;;;;4907127;29;20428;-63
2023/12/24 04:41:28;;;;;;;3.40;3.03;;;1.80;99.90;;;;;;4902159;29;20480;-63
2023/12/24 04:43:55;;;;;;;2.83;2.20;;;1.80;99.90;;;;;;4897593;29;20184;-64
2023/12/24 04:46:20;;;;;;;2.50;1.83;;;1.80;99.90;;;;;;4903624;29;20416;-63
2023/12/24 04:48:46;;;;;;;2.77;2.57;;;1.80;99.90;;;;;;4913330;29;20464;-63
2023/12/24 04:51:12;;;;;;;2.70;2.30;;;1.80;99.90;;;;;;4903162;29;20572;-63
2023/12/24 04:53:37;;;;;;;2.10;2.00;;;1.80;99.90;;;;;;4905413;29;20255;-63
2023/12/24 04:56:03;;;;;;;2.70;2.40;;;1.80;99.90;;;;;;4902405;29;20180;-63
2023/12/24 04:58:29;;;;;;;1.93;1.80;;;1.80;99.90;;;;;;4905362;29;20180;-63
2023/12/24 05:00:55;;;;;;;2.77;1.87;;;1.80;99.90;;;;;;4901496;29;20444;-63
2023/12/24 05:03:20;;;;;;;2.23;2.03;;;1.80;99.90;;;;;;4905150;29;20183;-62
2023/12/24 05:05:46;;;;;;;2.10;1.90;;;1.90;99.90;;;;;;4910726;29;20417;-62
2023/12/24 05:08:11;;;;;;;3.83;1.70;;;1.90;99.90;;;;;;4908007;29;20555;-62
2023/12/24 05:10:37;;;;;;;3.23;2.80;;;1.90;99.90;;;;;;4904694;29;20334;-62
2023/12/24 05:13:02;;;;;;;3.23;2.47;;;1.90;99.90;;;;;;4912098;29;20180;-63
2023/12/24 05:15:28;;;;;;;2.47;2.27;;;1.90;99.90;;;;;;4911711;29;20176;-62
2023/12/24 05:17:54;;;;;;;3.43;2.50;;;2.00;99.90;;;;;;4917038;29;20191;-63
2023/12/24 05:20:19;;;;;;;4.83;2.67;;;2.00;99.90;;;;;;4916687;29;20188;-63
2023/12/24 05:22:47;;;;;;;2.77;2.40;;;2.00;99.90;;;;;;4917927;29;20207;-62
2023/12/24 05:25:14;;;;;;;2.57;2.37;;;2.00;99.90;;;;;;4904658;29;20216;-61
2023/12/24 05:27:41;;;;;;;4.00;2.53;;;2.10;99.90;;;;;;4911554;29;20420;-62
2023/12/24 05:30:08;;;;;;;2.60;2.40;;;2.10;99.90;;;;;;4905637;29;20939;-61
2023/12/24 05:32:33;;;;;;;3.10;2.80;;;2.10;99.90;;;;;;4898907;29;20463;-60
2023/12/24 05:34:59;;;;;;;4.70;3.37;;;2.10;99.90;;;;;;4916670;29;20435;-61
2023/12/24 05:37:24;;;;;;;3.87;3.00;;;2.20;99.90;;;;;;4905992;29;20627;-61
2023/12/24 05:39:50;;;;;;;3.73;3.43;;;2.20;99.90;;;;;;4905809;29;20504;-60
2023/12/24 05:42:15;;;;;;;3.83;3.13;;;2.30;99.90;;;;;;4915703;29;20271;-60
2023/12/24 05:44:41;;;;;;;5.43;3.30;;;2.30;99.90;;;;;;4916204;29;20203;-60
2023/12/24 05:47:07;;;;;;;3.40;3.10;;;2.40;99.90;;;;;;4908728;29;20271;-60
2023/12/24 05:49:33;;;;;;;4.20;3.27;;;2.40;99.90;;;;;;4916144;29;20788;-61
2023/12/24 05:51:59;;;;;;;4.47;3.40;;;2.40;99.90;;;;;;4914218;29;20242;-62
2023/12/24 05:54:24;;;;;;;4.00;3.10;;;2.50;99.90;;;;;;4916301;29;20528;-61
2023/12/24 05:56:50;;;;;;;5.63;4.50;;;2.60;99.90;;;;;;4909590;29;20280;-59
2023/12/24 05:59:15;;;;;;;5.37;3.50;;;2.60;99.90;;;;;;4914679;29;20558;-62
2023/12/24 06:01:43;;;;;;;4.50;3.77;;;2.70;99.90;;;;;;4907833;29;20558;-62
2023/12/24 06:04:08;;;;;;;4.13;3.73;;;2.70;99.90;;;;;;4915995;29;20651;-60
2023/12/24 06:06:40;;;;;;;4.43;3.97;;;2.80;99.90;;;;;;4916075;29;20511;-62
2023/12/24 06:09:05;;;;;;;4.40;3.83;;;2.90;99.90;;;;;;4907072;29;20242;-62
2023/12/24 06:11:32;;;;;;;3.93;3.30;;;2.90;99.90;;;;;;4910138;29;20930;-60
2023/12/24 06:13:58;;;;;;;5.10;4.60;;;2.90;99.90;;;;;;4902985;29;20206;-62
2023/12/24 06:16:23;;;;;;;5.73;4.37;;;3.00;99.90;;;;;;4900595;29;20428;-62
2023/12/24 06:18:49;;;;;;;5.20;4.37;;;3.10;99.90;;;;;;4905247;29;20266;-62
2023/12/24 06:21:14;;;;;;;5.00;3.77;;;3.10;99.90;;;;;;4908108;29;20274;-63
2023/12/24 06:23:40;;;;;;;5.60;4.53;;;3.20;99.90;;;;;;4906165;29;20180;-61
2023/12/24 06:26:06;;;;;;;5.70;4.50;;;3.20;99.90;;;;;;4922982;23;20610;-61
2023/12/24 06:28:32;;;;;;;7.00;4.00;;;3.30;99.90;;;;;;4914875;29;20200;-61
2023/12/24 06:30:58;;;;;;;4.67;3.77;;;3.30;99.90;;;;;;4921046;29;20182;-62
2023/12/24 06:33:23;;;;;;;5.33;4.53;;;3.40;99.90;;;;;;4909595;29;20416;-61
2023/12/24 06:35:49;;;;;;;4.93;4.00;;;3.50;99.90;;;;;;4917562;29;20419;-61
2023/12/24 06:38:15;;;;;;;8.30;4.83;;;3.60;99.90;;;;;;4901660;29;20276;-62
2023/12/24 06:40:40;;;;;;;4.93;4.37;;;3.70;99.90;;;;;;4896029;29;20188;-62
2023/12/24 06:43:07;;;;;;;5.20;3.97;;;3.80;99.90;;;;;;4898464;29;20180;-62
2023/12/24 06:45:33;;;;;;;5.53;4.10;;;3.90;99.90;;;;;;4890682;29;20184;-62
2023/12/24 06:48:02;;;;;;;6.40;4.53;;;4.00;99.90;;;;;;4885094;29;20520;-62
2023/12/24 06:50:28;;;;;;;5.00;4.47;;;4.10;99.90;;;;;;4889834;29;20675;-61
2023/12/24 06:52:54;;;;;;;6.43;5.03;;;4.20;99.90;;;;;;4898374;29;20439;-61
2023/12/24 06:55:19;;;;;;;5.33;4.80;;;4.30;99.90;;;;;;4900861;29;20424;-61
2023/12/24 06:57:45;;;;;;;5.97;4.67;;;4.50;99.90;;;;;;4898057;29;20589;-61
2023/12/24 07:00:11;;;;;;;5.03;4.20;;;4.60;99.90;;;;;;4892608;29;20188;-62
2023/12/24 07:02:36;;;;;;;6.33;4.50;;;4.70;99.90;;;;;;4897919;29;20263;-62
2023/12/24 07:05:02;;;;;;;5.20;3.53;;;4.90;99.90;;;;;;4898048;29;20511;-62
2023/12/24 07:07:28;;;;;;;3.80;3.50;;;5.30;99.90;;;;;;4897718;29;20204;-62
2023/12/24 07:09:53;;;;;;;5.00;3.77;;;5.50;99.90;;;;;;4898019;29;20603;-61
2023/12/24 07:12:20;;;;;;;3.20;2.70;;;5.80;99.90;;;;;;4897780;29;20591;-62
2023/12/24 07:14:45;;;;;;;4.50;3.07;;;6.20;99.90;;;;;;4906357;29;20454;-62
2023/12/24 07:17:11;;;;;;;2.33;2.07;;;6.30;99.90;;;;;;4893514;29;20449;-62
2023/12/24 07:19:37;;;;;;;3.20;2.00;;;6.70;99.90;;;;;;4900356;29;20231;-63
2023/12/24 07:22:02;;;;;;;3.20;2.50;;;6.80;99.90;;;;;;4900706;29;20188;-62
2023/12/24 07:24:28;;;;;;;3.60;3.00;;;7.00;99.90;;;;;;4893110;29;20236;-62
2023/12/24 07:26:53;;;;;;;2.40;2.20;;;7.00;99.90;;;;;;4889973;29;20221;-62
2023/12/24 07:29:19;;;;;;;3.53;2.77;;;7.10;99.90;;;;;;4891640;29;20204;-62
2023/12/24 07:31:47;;;;;;;2.90;2.27;;;7.10;99.90;;;;;;4902464;29;20662;-62
2023/12/24 07:34:12;;;;;;;2.90;2.60;;;7.30;99.90;;;;;;4901021;29;20187;-62
2023/12/24 07:36:38;;;;;;;3.03;2.63;;;7.30;99.90;;;;;;4897330;29;20534;-63
2023/12/24 07:39:03;;;;;;;3.23;2.70;;;7.40;99.90;;;;;;4903417;29;20217;-62
2023/12/24 07:41:32;;;;;;;3.50;2.70;;;7.40;99.90;;;;;;4896749;29;20582;-63
2023/12/24 07:43:58;;;;;;;3.17;2.90;;;7.40;99.90;;;;;;4899997;29;20196;-63
2023/12/24 07:46:23;;;;;;;3.27;3.00;;;7.40;99.90;;;;;;4897200;29;20461;-62
2023/12/24 07:48:49;;;;;;;4.30;3.37;;;7.50;99.90;;;;;;4896734;29;20265;-63
2023/12/24 07:51:15;;;;;;;3.80;3.00;;;7.60;99.90;;;;;;4895906;29;20212;-62
2023/12/24 07:53:41;;;;;;;3.03;2.73;;;7.60;99.90;;;;;;4899365;29;20238;-62
2023/12/24 07:56:06;;;;;;;3.30;3.00;;;7.60;99.90;;;;;;4907489;29;20852;-63
2023/12/24 07:58:32;;;;;;;3.60;3.20;;;7.60;99.90;;;;;;4897126;29;20680;-62
2023/12/24 08:00:57;;;;;;;3.50;2.90;;;7.70;99.90;;;;;;4892303;29;20188;-62
2023/12/24 08:03:23;;;;;;;4.40;3.60;;;7.70;99.90;;;;;;4890449;29;20234;-63
2023/12/24 08:05:48;;;;;;;4.87;3.87;;;7.70;99.90;;;;;;4896937;29;20186;-63
2023/12/24 08:08:14;;;;;;;5.37;3.23;;;7.70;99.90;;;;;;4896876;29;20218;-63
2023/12/24 08:10:40;;;;;;;4.33;3.93;;;7.80;99.90;;;;;;4897039;29;20209;-63
2023/12/24 08:13:05;;;;;;;5.90;4.43;;;7.80;99.90;;;;;;4883563;29;20260;-62
2023/12/24 08:15:31;;;;;;;6.30;4.10;;;7.80;99.90;;;;;;4897624;29;20229;-63
2023/12/24 08:17:57;;;;;;;7.83;4.80;;;7.80;99.90;;;;;;4899232;29;20233;-62
2023/12/24 08:20:22;;;;;;;4.87;4.30;;;7.80;99.90;;;;;;4896383;29;20186;-62
2023/12/24 08:22:49;;;;;;;5.20;4.47;;;7.90;99.90;;;;;;4900669;29;20176;-61
2023/12/24 08:25:15;;;;;;;7.37;5.10;;;7.90;99.90;;;;;;4890386;29;20280;-61
2023/12/24 08:27:41;;;;;;;6.70;5.17;;;7.90;99.90;;;;;;4902103;29;20946;-63
2023/12/24 08:30:08;;;;;;;6.73;5.00;;;7.90;99.90;;;;;;4899873;29;20220;-61
2023/12/24 08:32:34;;;;;;;4.97;3.77;;;8.00;99.90;;;;;;4888796;29;20421;-61
2023/12/24 08:34:59;;;;;;;6.07;4.77;;;8.00;99.90;;;;;;4896784;29;21220;-61
2023/12/24 08:37:25;;;;;;;5.63;4.60;;;8.00;99.90;;;;;;4900900;29;20294;-61
2023/12/24 08:39:51;;;;;;;5.20;4.70;;;8.00;99.90;;;;;;4892473;29;20616;-61
2023/12/24 08:42:16;;;;;;;6.83;5.00;;;8.00;99.90;;;;;;4895637;29;20676;-61
2023/12/24 08:44:42;;;;;;;8.10;5.57;;;8.10;99.90;;;;;;4899419;29;20193;-61
2023/12/24 08:47:08;;;;;;;7.63;5.17;;;8.10;99.90;;;;;;4895310;29;20205;-61
2023/12/24 08:49:33;;;;;;;6.90;5.63;;;8.10;99.90;;;;;;4895180;29;20460;-61
2023/12/24 08:51:59;;;;;;;6.97;5.77;;;8.10;99.90;;;;;;4897730;29;20692;-61
2023/12/24 08:54:24;;;;;;;6.93;5.60;;;8.10;99.90;;;;;;4896297;29;20188;-61
2023/12/24 08:56:50;;;;;;;6.93;5.80;;;8.10;99.90;;;;;;4896493;29;20217;-61
2023/12/24 08:59:16;;;;;;;6.87;5.20;;;8.20;99.90;;;;;;4896026;29;20614;-62
2023/12/24 09:01:41;;;;;;;6.20;5.50;;;8.20;99.90;;;;;;4904041;29;20189;-62
2023/12/24 09:04:07;;;;;;;5.87;4.83;;;8.20;99.90;;;;;;4898218;29;20180;-62
2023/12/24 09:06:32;;;;;;;5.60;4.93;;;8.20;99.90;;;;;;4895260;29;20300;-62
2023/12/24 09:08:58;;;;;;;6.60;5.90;;;8.30;99.90;;;;;;4896210;29;20720;-62
2023/12/24 09:11:24;;;;;;;9.87;6.20;;;8.30;99.90;;;;;;4896179;29;20236;-62
2023/12/24 09:13:49;;;;;;;5.40;4.90;;;8.30;99.90;;;;;;4896456;29;20184;-62
2023/12/24 09:16:15;;;;;;;5.17;4.67;;;8.30;99.90;;;;;;4903717;29;20586;-62
2023/12/24 09:18:40;;;;;;;5.03;4.20;;;8.30;99.90;;;;;;4896207;29;20183;-62
2023/12/24 09:21:06;;;;;;;5.47;4.00;;;8.40;99.90;;;;;;4896137;29;20185;-62
2023/12/24 09:23:31;;;;;;;5.57;4.70;;;8.40;99.90;;;;;;4890054;29;20207;-62
2023/12/24 09:25:57;;;;;;;3.83;3.53;;;8.40;99.90;;;;;;4898586;29;20189;-62
2023/12/24 09:28:23;;;;;;;4.60;3.83;;;8.40;99.90;;;;;;4889624;29;20188;-62
2023/12/24 09:30:49;;;;;;;4.80;4.30;;;8.40;99.90;;;;;;4890064;29;20215;-63
2023/12/24 09:33:14;;;;;;;5.40;3.43;;;8.50;99.90;;;;;;4898427;29;20190;-62
2023/12/24 09:35:42;;;;;;;3.23;2.93;;;8.50;99.90;;;;;;4899934;29;20517;-62
2023/12/24 09:38:07;;;;;;;4.63;3.60;;;8.50;99.90;;;;;;4898816;29;20624;-62
2023/12/24 09:40:33;;;;;;;150.63;83.07;;;8.50;99.90;;;;;;4893768;29;20512;-62
2023/12/24 09:42:59;;;;;;;5.20;4.70;;;8.90;99.90;;;;;;4900118;29;20247;-62
2023/12/24 09:45:25;;;;;;;3.23;2.93;;;8.60;99.90;;;;;;4899701;29;20181;-62
2023/12/24 09:47:51;;;;;;;3.60;3.30;;;8.60;99.90;;;;;;4904088;29;20974;-62
2023/12/24 09:50:16;;;;;;;4.60;3.37;;;8.60;99.90;;;;;;4901417;29;20211;-64
2023/12/24 09:52:45;;;;;;;3.40;3.07;;;8.60;99.90;;;;;;4895711;29;20188;-63
2023/12/24 09:55:10;;;;;;;2.43;2.23;;;8.60;99.90;;;;;;4903006;29;20596;-70
2023/12/24 09:57:36;;;;;;;3.07;2.50;;;8.70;99.90;;;;;;4895478;29;20454;-64
2023/12/24 10:00:02;;;;;;;3.20;2.10;;;8.70;99.90;;;;;;4895476;29;20197;-65
2023/12/24 10:02:27;;;;;;;2.40;1.90;;;8.70;99.90;;;;;;4893843;29;20182;-65
2023/12/24 10:04:54;;;;;;;1.93;1.83;;;8.70;99.90;;;;;;4899515;29;20660;-65
2023/12/24 10:07:19;;;;;;;1.93;1.80;;;8.70;99.90;;;;;;4899164;29;20208;-61
2023/12/24 10:09:49;;;;;;;1.73;1.63;;;8.70;99.90;;;;;;4897835;29;20534;-61
2023/12/24 10:12:15;;;;;;;1.50;1.40;;;8.80;99.90;;;;;;4905499;29;20195;-61
2023/12/24 10:14:52;;;;;;;1.83;1.60;;;8.80;99.90;;;;;;4902673;29;20436;-61
2023/12/24 10:17:33;;;;;;;1.80;1.70;;;8.80;99.90;;;;;;4898858;29;20443;-61
2023/12/24 10:20:02;;;;;;;1.53;1.43;;;8.80;99.90;;;;;;4901527;29;20430;-62
2023/12/24 10:22:28;;;;;;;3.33;1.50;;;8.80;99.90;;;;;;4898190;29;20466;-61
2023/12/24 10:25:01;;;;;;;1.53;1.43;;;8.90;99.90;;;;;;4900491;29;20432;-61
2023/12/24 10:27:27;;;;;;;1.50;1.40;;;8.90;99.90;;;;;;4894151;29;20219;-62
2023/12/24 10:29:55;;;;;;;1.30;1.20;;;8.90;99.90;;;;;;4909138;29;20493;-62
2023/12/24 10:32:24;;;;;;;1.47;1.20;;;9.00;99.90;;;;;;4898931;29;20792;-62
2023/12/24 10:34:59;;;;;;;1.20;1.10;;;9.00;99.90;;;;;;4898350;29;20439;-62
2023/12/24 10:37:29;;;;;;;1.60;1.50;;;9.00;99.90;;;;;;4898568;29;20504;-61
2023/12/24 10:40:08;;;;;;;1.63;1.47;;;9.00;99.90;;;;;;4900992;29;20438;-61
2023/12/24 10:42:36;;;;;;;1.50;1.13;;;9.00;99.90;;;;;;4899060;29;20431;-61
2023/12/24 10:45:02;;;;;;;1.30;1.20;;;9.00;99.90;;;;;;4899805;29;20435;-61
2023/12/24 10:47:28;;;;;;;1.47;1.20;;;9.00;99.90;;;;;;4899585;29;20443;-61
2023/12/24 10:49:53;;;;;;;1.90;1.80;;;9.10;99.90;;;;;;4898123;29;20474;-63
2023/12/24 10:52:19;;;;;;;1.50;1.30;;;9.10;99.90;;;;;;4904218;29;20228;-64
2023/12/24 10:54:46;;;;;;;1.00;0.90;;;9.10;99.90;;;;;;4905265;29;20526;-67
2023/12/24 10:57:21;;;;;;;1.20;1.10;;;9.10;99.90;;;;;;4891044;29;20204;-64
2023/12/24 11:00:10;;;;;;;1.40;1.30;;;9.10;99.90;;;;;;4897600;29;20972;-62
2023/12/24 11:02:45;;;;;;;1.60;1.40;;;9.10;99.90;;;;;;4897754;29;20983;-65
2023/12/24 11:05:11;;;;;;;1.13;1.00;;;9.20;99.90;;;;;;4898151;29;20514;-63
2023/12/24 11:07:45;;;;;;;2.33;1.20;;;9.20;99.90;;;;;;4896610;29;20447;-62
2023/12/24 11:10:39;;;;;;;1.13;1.03;;;9.20;99.90;;;;;;4897966;29;20806;-62
2023/12/24 11:13:32;;;;;;;2.00;1.03;;;9.30;99.90;;;;;;4886928;29;20421;-62
2023/12/24 11:16:02;;;;;;;0.97;0.97;;;9.20;99.90;;;;;;4889807;29;20430;-62
2023/12/24 11:18:48;;;;;;;1.13;1.03;;;9.20;99.90;;;;;;4898162;29;20495;-62
2023/12/24 11:21:16;;;;;;;1.33;1.23;;;9.20;99.90;;;;;;4897529;29;20419;-62
2023/12/24 11:24:02;;;;;;;1.30;1.20;;;9.20;99.90;;;;;;4889823;29;20431;-61
2023/12/24 11:26:31;;;;;;;1.10;1.00;;;9.20;99.90;;;;;;4901529;29;20513;-62
2023/12/24 11:29:02;;;;;;;1.20;1.10;;;9.20;99.90;;;;;;4897045;29;20464;-62
2023/12/24 11:31:29;;;;;;;1.30;1.17;;;9.30;99.90;;;;;;4894381;29;20417;-62
2023/12/24 11:33:55;;;;;;;1.90;1.07;;;9.20;99.90;;;;;;4903393;29;20425;-62
2023/12/24 11:36:23;;;;;;;1.40;1.30;;;9.20;99.90;;;;;;4896980;29;20486;-62
2023/12/24 11:38:57;;;;;;;1.77;1.53;;;9.20;99.90;;;;;;4890480;29;20507;-62
2023/12/24 11:41:24;;;;;;;0.87;0.87;;;9.20;99.90;;;;;;4893341;29;20546;-62
2023/12/24 11:44:00;;;;;;;1.40;1.30;;;9.30;99.90;;;;;;4897393;29;20435;-62
2023/12/24 11:46:27;;;;;;;1.00;0.90;;;9.30;99.90;;;;;;4900584;29;20935;-62
2023/12/24 11:48:57;;;;;;;1.57;1.10;;;9.20;99.90;;;;;;4902635;29;20470;-62
2023/12/24 11:51:26;;;;;;;1.30;1.10;;;9.20;99.90;;;;;;4899943;29;20440;-62
2023/12/24 11:54:03;;;;;;;1.30;1.20;;;9.20;99.90;;;;;;4902030;29;20428;-62
2023/12/24 11:56:30;;;;;;;1.37;1.27;;;9.20;99.90;;;;;;4897211;29;20468;-62
2023/12/24 11:59:00;;;;;;;1.03;0.97;;;9.20;99.90;;;;;;4895608;29;20465;-62
2023/12/24 12:01:28;;;;;;;1.10;1.00;;;9.20;99.90;;;;;;4889903;29;20520;-62
2023/12/24 12:04:04;;;;;;;1.17;1.07;;;9.30;99.90;;;;;;4899339;29;20518;-59
2023/12/24 12:06:32;;;;;;;1.30;1.20;;;9.30;99.90;;;;;;4898402;29;20451;-62
2023/12/24 12:08:58;;;;;;;1.80;1.23;;;9.30;99.90;;;;;;4901281;29;20547;-62
2023/12/24 12:11:24;;;;;;;1.30;1.20;;;9.30;99.90;;;;;;4899261;29;20425;-62
2023/12/24 12:13:50;;;;;;;1.07;0.97;;;9.30;99.90;;;;;;4899039;29;20519;-62
2023/12/24 12:16:16;;;;;;;2.37;1.03;;;9.30;99.90;;;;;;4901461;29;20574;-62
2023/12/24 12:18:41;;;;;;;1.30;1.20;;;9.30;99.90;;;;;;4897838;29;20176;-62
2023/12/24 12:21:10;;;;;;;0.93;0.93;;;9.20;99.90;;;;;;4899897;29;20793;-62
2023/12/24 12:23:37;;;;;;;1.00;1.00;;;9.20;99.90;;;;;;4896891;29;20279;-63
2023/12/24 12:26:03;;;;;;;1.17;1.00;;;9.20;99.90;;;;;;4896672;29;20449;-62
2023/12/24 12:28:29;;;;;;;1.20;1.07;;;9.20;99.90;;;;;;4902540;29;20426;-62
2023/12/24 12:30:54;;;;;;;2.20;2.03;;;9.20;99.90;;;;;;4896361;29;20488;-62
2023/12/24 12:33:20;;;;;;;1.80;1.40;;;9.20;99.90;;;;;;4896533;29;20648;-61
2023/12/24 12:35:45;;;;;;;1.30;1.20;;;9.20;99.90;;;;;;4894124;29;20181;-62
2023/12/24 12:38:11;;;;;;;2.30;1.60;;;9.20;99.90;;;;;;4891734;29;20206;-62
2023/12/24 12:40:36;;;;;;;2.83;2.10;;;9.20;99.90;;;;;;4896726;29;20184;-62
2023/12/24 12:43:02;;;;;;;1.40;1.30;;;9.20;99.90;;;;;;4903216;29;20547;-62
2023/12/24 12:45:28;;;;;;;1.57;1.23;;;9.20;99.90;;;;;;4896571;29;20189;-62
2023/12/24 12:47:53;;;;;;;1.23;1.13;;;9.20;99.90;;;;;;4926054;23;20223;-60
2023/12/24 12:50:19;;;;;;;1.50;1.40;;;9.20;99.90;;;;;;4913382;29;20259;-60
2023/12/24 12:52:49;;;;;;;2.00;1.80;;;9.20;99.90;;;;;;4913190;29;20253;-59
2023/12/24 12:55:16;;;;;;;1.90;1.80;;;9.20;99.90;;;;;;4913665;29;20186;-62